Time;durP1;ratioP1;P1;durP2;ratioP2;P2;SDS_P1;SDS_P2;PMS_P1;PMS_P2;Temp;Humidity;BMP_temperature;BMP_pressure;BME280_temperature;BME280_humidity;BME280_pressure;Samples;Min_cycle;Max_cycle;Signal;HPM_P1;HPM_P2
2023/04/15 00:01:58;;;;;;;4.53;2.35;;;6.60;68.40;;;;;;4954601;28;20042;-63
2023/04/15 00:04:24;;;;;;;4.85;2.50;;;6.60;68.40;;;;;;4956343;28;20034;-64
2023/04/15 00:06:53;;;;;;;4.32;2.75;;;6.60;68.40;;;;;;4954158;28;20062;-64
2023/04/15 00:09:20;;;;;;;4.75;2.78;;;6.60;68.60;;;;;;4954131;28;20074;-64
2023/04/15 00:11:45;;;;;;;5.25;2.75;;;6.50;68.40;;;;;;4957832;28;20510;-63
2023/04/15 00:14:12;;;;;;;5.57;3.30;;;6.50;68.50;;;;;;4954168;28;20050;-62
2023/04/15 00:16:38;;;;;;;5.68;2.88;;;6.40;68.70;;;;;;4952931;28;20042;-63
2023/04/15 00:19:03;;;;;;;5.80;2.75;;;6.40;68.90;;;;;;4952580;28;20511;-63
2023/04/15 00:21:29;;;;;;;5.28;2.50;;;6.40;69.00;;;;;;4951596;28;20049;-63
2023/04/15 00:23:55;;;;;;;4.72;2.63;;;6.40;69.00;;;;;;4954794;28;20126;-63
2023/04/15 00:26:21;;;;;;;4.40;2.53;;;6.40;69.10;;;;;;4955943;28;20126;-63
2023/04/15 00:28:46;;;;;;;4.80;2.72;;;6.40;69.00;;;;;;4952719;28;20042;-64
2023/04/15 00:31:12;;;;;;;5.97;2.58;;;6.30;68.90;;;;;;4952737;28;20345;-62
2023/04/15 00:33:38;;;;;;;7.05;3.45;;;6.30;68.90;;;;;;4952967;28;20039;-64
2023/04/15 00:36:05;;;;;;;7.93;3.85;;;6.30;68.90;;;;;;4956197;28;20042;-63
2023/04/15 00:38:31;;;;;;;10.63;4.22;;;6.30;69.00;;;;;;4950518;28;20161;-63
2023/04/15 00:40:57;;;;;;;9.35;4.93;;;6.30;69.10;;;;;;4951088;28;20035;-63
2023/04/15 00:43:22;;;;;;;11.18;4.93;;;6.30;69.10;;;;;;4955861;28;20415;-63
2023/04/15 00:45:50;;;;;;;7.95;4.38;;;6.30;69.20;;;;;;4958661;28;20110;-62
2023/04/15 00:48:16;;;;;;;6.43;3.50;;;6.20;69.10;;;;;;4959886;28;20042;-63
2023/04/15 00:50:42;;;;;;;7.35;3.70;;;6.20;69.40;;;;;;4959567;28;20027;-63
2023/04/15 00:53:07;;;;;;;4.43;3.15;;;6.20;69.30;;;;;;4959858;28;20301;-64
2023/04/15 00:55:33;;;;;;;6.43;3.25;;;6.20;69.50;;;;;;4958819;28;20039;-63
2023/04/15 00:57:58;;;;;;;5.13;2.83;;;6.10;69.60;;;;;;4957239;28;20048;-63
2023/04/15 01:00:24;;;;;;;7.70;3.40;;;6.10;69.70;;;;;;4959141;28;20039;-63
2023/04/15 01:02:50;;;;;;;6.72;3.50;;;6.00;69.70;;;;;;4958170;28;20035;-63
2023/04/15 01:05:17;;;;;;;8.13;4.00;;;6.00;69.80;;;;;;4957310;28;20042;-63
2023/04/15 01:07:43;;;;;;;8.82;3.58;;;6.00;69.90;;;;;;4955824;28;20051;-63
2023/04/15 01:10:08;;;;;;;7.60;3.20;;;6.00;70.00;;;;;;4957409;28;20081;-61
2023/04/15 01:12:35;;;;;;;4.55;2.80;;;5.90;70.00;;;;;;4958074;28;20027;-63
2023/04/15 01:15:01;;;;;;;5.60;2.75;;;5.90;70.00;;;;;;4958785;28;20039;-63
2023/04/15 01:17:27;;;;;;;4.25;2.67;;;5.90;70.10;;;;;;4957093;28;20031;-63
2023/04/15 01:19:56;;;;;;;4.97;2.72;;;5.90;70.30;;;;;;4954667;28;20039;-63
2023/04/15 01:22:23;;;;;;;3.50;2.40;;;5.80;70.60;;;;;;4956672;28;20070;-63
2023/04/15 01:25:00;;;;;;;4.78;2.17;;;5.80;70.50;;;;;;4955841;28;20061;-63
2023/04/15 01:27:26;;;;;;;3.53;2.13;;;5.70;70.70;;;;;;4956168;28;20512;-64
2023/04/15 01:29:52;;;;;;;4.97;2.40;;;5.70;70.30;;;;;;4957063;28;20039;-64
2023/04/15 01:32:18;;;;;;;2.78;1.88;;;5.70;70.40;;;;;;4956445;28;20027;-64
2023/04/15 01:34:44;;;;;;;3.33;2.08;;;5.60;70.40;;;;;;4953225;28;20106;-64
2023/04/15 01:37:10;;;;;;;3.63;2.20;;;5.50;70.50;;;;;;4957117;28;20567;-63
2023/04/15 01:39:36;;;;;;;3.60;2.33;;;5.50;70.50;;;;;;4953294;28;20430;-64
2023/04/15 01:42:02;;;;;;;7.70;2.60;;;5.50;70.80;;;;;;4954033;28;20906;-64
2023/04/15 01:44:27;;;;;;;4.90;2.15;;;5.50;71.00;;;;;;4954663;28;20035;-63
2023/04/15 01:46:53;;;;;;;3.00;2.00;;;5.40;70.80;;;;;;4955132;28;20045;-64
2023/04/15 01:49:18;;;;;;;4.45;2.00;;;5.40;70.80;;;;;;4955509;28;20038;-63
2023/04/15 01:51:44;;;;;;;5.03;1.88;;;5.30;70.90;;;;;;4956123;28;20063;-63
2023/04/15 01:54:10;;;;;;;7.00;2.10;;;5.30;71.00;;;;;;4955025;28;20406;-63
2023/04/15 01:56:35;;;;;;;4.28;2.10;;;5.20;71.10;;;;;;4954694;28;20185;-63
2023/04/15 01:59:02;;;;;;;5.75;2.13;;;5.20;71.20;;;;;;4956335;28;20042;-64
2023/04/15 02:01:28;;;;;;;4.88;2.15;;;5.10;71.30;;;;;;4955198;28;20071;-63
2023/04/15 02:03:53;;;;;;;3.83;2.00;;;5.00;71.50;;;;;;4955047;28;20802;-63
2023/04/15 02:06:19;;;;;;;3.83;2.15;;;5.00;71.90;;;;;;4953511;28;20137;-63
2023/04/15 02:08:45;;;;;;;4.57;2.22;;;5.00;72.00;;;;;;4953342;28;20039;-63
2023/04/15 02:11:11;;;;;;;5.20;2.13;;;4.90;71.90;;;;;;4957093;28;20434;-61
2023/04/15 02:13:36;;;;;;;3.92;2.05;;;4.90;72.00;;;;;;4952032;28;20049;-63
2023/04/15 02:16:02;;;;;;;4.90;2.00;;;4.90;72.00;;;;;;4954153;28;20035;-62
2023/04/15 02:18:28;;;;;;;4.18;2.20;;;4.90;72.20;;;;;;4956922;28;20061;-62
2023/04/15 02:20:56;;;;;;;4.82;2.53;;;4.80;72.20;;;;;;4957043;28;20035;-63
2023/04/15 02:23:21;;;;;;;4.78;2.40;;;4.80;72.20;;;;;;4957730;28;20042;-64
2023/04/15 02:25:47;;;;;;;2.95;2.10;;;4.80;72.30;;;;;;4956439;28;20031;-64
2023/04/15 02:28:12;;;;;;;6.40;2.08;;;4.80;72.30;;;;;;4958291;28;20047;-64
2023/04/15 02:30:39;;;;;;;5.10;2.30;;;4.80;72.30;;;;;;4955755;28;20051;-63
2023/04/15 02:33:06;;;;;;;5.47;2.15;;;4.80;72.40;;;;;;4955286;28;20090;-63
2023/04/15 02:35:31;;;;;;;5.50;2.50;;;4.80;72.40;;;;;;4956515;28;20034;-64
2023/04/15 02:37:57;;;;;;;3.58;2.28;;;4.70;72.30;;;;;;4952093;28;20047;-63
2023/04/15 02:40:23;;;;;;;4.00;1.98;;;4.70;72.40;;;;;;4954874;28;20041;-64
2023/04/15 02:42:48;;;;;;;5.03;2.15;;;4.70;72.30;;;;;;4954046;28;20506;-63
2023/04/15 02:45:14;;;;;;;5.50;2.20;;;4.70;72.20;;;;;;4953975;28;20043;-63
2023/04/15 02:47:40;;;;;;;4.28;2.13;;;4.70;72.30;;;;;;4956745;28;20060;-62
2023/04/15 02:50:11;;;;;;;4.05;1.90;;;4.70;72.30;;;;;;4953660;28;20035;-63
2023/04/15 02:52:40;;;;;;;4.68;2.33;;;4.70;72.50;;;;;;4954653;28;20038;-62
2023/04/15 02:55:06;;;;;;;4.35;2.03;;;4.60;72.40;;;;;;4955575;28;20042;-62
2023/04/15 02:57:31;;;;;;;4.45;1.95;;;4.60;72.40;;;;;;4954238;28;20031;-63
2023/04/15 02:59:57;;;;;;;3.60;2.00;;;4.60;72.50;;;;;;4956271;28;20157;-63
2023/04/15 03:02:22;;;;;;;4.13;2.00;;;4.60;72.60;;;;;;4956353;28;20046;-63
2023/04/15 03:04:48;;;;;;;5.68;2.25;;;4.60;72.70;;;;;;4953291;28;20042;-63
2023/04/15 03:07:14;;;;;;;5.10;1.95;;;4.50;72.70;;;;;;4957734;28;20036;-63
2023/04/15 03:09:40;;;;;;;4.47;2.35;;;4.50;72.70;;;;;;4954155;28;20041;-61
2023/04/15 03:12:05;;;;;;;4.75;2.90;;;4.50;72.60;;;;;;4953731;28;20042;-63
2023/04/15 03:14:31;;;;;;;9.48;3.33;;;4.50;72.60;;;;;;4953281;28;20569;-62
2023/04/15 03:16:58;;;;;;;6.32;3.15;;;4.50;73.40;;;;;;4952600;28;20515;-63
2023/04/15 03:19:24;;;;;;;5.75;2.60;;;4.40;72.60;;;;;;4952682;28;20444;-63
2023/04/15 03:21:50;;;;;;;4.85;2.60;;;4.40;72.60;;;;;;4954120;28;20038;-63
2023/04/15 03:24:16;;;;;;;5.00;3.22;;;4.40;72.70;;;;;;4953098;28;20039;-63
2023/04/15 03:26:42;;;;;;;5.47;3.13;;;4.40;72.70;;;;;;4953836;28;20070;-62
2023/04/15 03:29:08;;;;;;;6.97;3.35;;;4.40;72.80;;;;;;4954041;28;20399;-64
2023/04/15 03:31:33;;;;;;;3.92;2.65;;;4.40;72.90;;;;;;4951759;28;20355;-63
2023/04/15 03:33:59;;;;;;;5.15;2.47;;;4.40;73.00;;;;;;4952300;28;20515;-62
2023/04/15 03:36:26;;;;;;;6.68;2.30;;;4.30;72.80;;;;;;4951610;28;20494;-63
2023/04/15 03:38:51;;;;;;;3.30;2.35;;;4.30;72.90;;;;;;4955496;28;20043;-63
2023/04/15 03:41:17;;;;;;;4.43;2.35;;;4.30;73.00;;;;;;4955113;28;20066;-64
2023/04/15 03:43:43;;;;;;;4.63;2.35;;;4.20;73.10;;;;;;4951574;28;20057;-63
2023/04/15 03:46:08;;;;;;;6.32;2.22;;;4.20;73.20;;;;;;4953934;28;20023;-63
2023/04/15 03:48:34;;;;;;;3.58;2.00;;;4.20;73.30;;;;;;4953009;28;20047;-63
2023/04/15 03:51:00;;;;;;;6.20;2.35;;;4.20;73.30;;;;;;4955756;28;20046;-63
2023/04/15 03:53:25;;;;;;;5.43;2.20;;;4.10;73.30;;;;;;4954516;28;20031;-63
2023/04/15 03:55:51;;;;;;;3.53;1.90;;;4.20;73.40;;;;;;4943528;28;20719;-63
2023/04/15 03:58:17;;;;;;;2.72;1.80;;;4.20;73.40;;;;;;4954370;28;20519;-63
2023/04/15 04:00:43;;;;;;;6.65;2.42;;;4.20;73.50;;;;;;4952837;28;20039;-63
2023/04/15 04:03:08;;;;;;;4.85;2.50;;;4.20;73.40;;;;;;4953115;28;20534;-63
2023/04/15 04:05:37;;;;;;;5.97;2.20;;;4.20;73.40;;;;;;4954874;28;20047;-63
2023/04/15 04:08:03;;;;;;;4.85;2.20;;;4.20;73.40;;;;;;4955044;28;20502;-63
2023/04/15 04:10:29;;;;;;;3.30;2.50;;;4.20;73.40;;;;;;4953008;28;20031;-62
2023/04/15 04:12:54;;;;;;;6.90;2.70;;;4.20;73.50;;;;;;4953918;28;20031;-63
2023/04/15 04:15:20;;;;;;;5.90;3.13;;;4.10;73.40;;;;;;4951341;28;20493;-63
2023/04/15 04:17:45;;;;;;;6.47;3.13;;;4.20;73.50;;;;;;4957512;28;20495;-63
2023/04/15 04:20:11;;;;;;;4.10;2.78;;;4.20;73.40;;;;;;4958672;28;20034;-63
2023/04/15 04:22:40;;;;;;;5.10;2.90;;;4.20;73.50;;;;;;4957709;28;20466;-63
2023/04/15 04:25:10;;;;;;;5.03;2.60;;;4.20;74.50;;;;;;4958740;28;20039;-62
2023/04/15 04:27:36;;;;;;;6.03;3.00;;;4.20;73.60;;;;;;4958875;28;20043;-62
2023/04/15 04:30:01;;;;;;;6.15;3.17;;;4.20;73.60;;;;;;4958150;28;20376;-63
2023/04/15 04:32:27;;;;;;;5.00;3.00;;;4.20;73.80;;;;;;4955114;28;20031;-63
2023/04/15 04:34:52;;;;;;;5.00;2.80;;;4.10;73.90;;;;;;4958896;28;20527;-63
2023/04/15 04:37:18;;;;;;;6.90;2.92;;;4.10;74.10;;;;;;4955432;28;20062;-63
2023/04/15 04:39:44;;;;;;;5.57;2.53;;;4.10;74.00;;;;;;4957342;28;20059;-62
2023/04/15 04:42:10;;;;;;;3.95;2.78;;;4.10;74.10;;;;;;4956408;28;20031;-63
2023/04/15 04:44:36;;;;;;;5.82;2.95;;;4.10;74.10;;;;;;4958092;28;20042;-63
2023/04/15 04:47:01;;;;;;;4.97;2.95;;;4.00;74.20;;;;;;4951946;28;20042;-63
2023/04/15 04:49:27;;;;;;;5.65;2.67;;;4.10;74.30;;;;;;4939408;28;20043;-63
2023/04/15 04:51:52;;;;;;;6.22;2.72;;;4.10;74.20;;;;;;4958214;28;20045;-62
2023/04/15 04:54:18;;;;;;;7.50;3.17;;;4.10;74.20;;;;;;4956871;28;20031;-63
2023/04/15 04:56:44;;;;;;;5.85;3.13;;;4.10;74.30;;;;;;4957832;28;20505;-63
2023/04/15 04:59:09;;;;;;;6.95;3.92;;;4.10;74.40;;;;;;4958299;28;20102;-63
2023/04/15 05:01:35;;;;;;;11.35;4.57;;;4.00;74.40;;;;;;4957729;28;20043;-63
2023/04/15 05:04:00;;;;;;;14.23;6.03;;;4.00;74.40;;;;;;4958279;28;20207;-62
2023/04/15 05:06:29;;;;;;;22.55;9.43;;;4.00;74.40;;;;;;4957805;28;20050;-61
2023/04/15 05:08:55;;;;;;;24.75;10.23;;;4.00;74.50;;;;;;4958396;28;20042;-63
2023/04/15 05:11:21;;;;;;;29.65;12.15;;;4.00;74.60;;;;;;4956263;28;20038;-63
2023/04/15 05:13:46;;;;;;;32.50;12.50;;;4.00;74.70;;;;;;4953812;28;20532;-63
2023/04/15 05:16:12;;;;;;;26.35;10.90;;;4.00;74.80;;;;;;4954703;28;20035;-63
2023/04/15 05:18:38;;;;;;;18.17;9.45;;;4.00;74.90;;;;;;4953910;28;20761;-62
2023/04/15 05:21:04;;;;;;;15.20;7.38;;;4.00;75.00;;;;;;4957656;28;20032;-63
2023/04/15 05:23:29;;;;;;;12.18;5.47;;;4.00;75.00;;;;;;4958655;28;20070;-63
2023/04/15 05:25:55;;;;;;;10.43;4.90;;;4.00;75.10;;;;;;4955543;28;20060;-63
2023/04/15 05:28:20;;;;;;;7.13;4.13;;;4.10;75.20;;;;;;4955043;28;20122;-63
2023/04/15 05:30:46;;;;;;;6.82;3.75;;;4.10;75.30;;;;;;4955029;28;20643;-63
2023/04/15 05:33:12;;;;;;;7.03;4.05;;;4.10;75.40;;;;;;4955885;28;20035;-63
2023/04/15 05:35:37;;;;;;;7.60;4.22;;;4.10;75.50;;;;;;4951868;28;20047;-63
2023/04/15 05:38:03;;;;;;;9.07;4.50;;;4.10;75.70;;;;;;4957056;28;20510;-63
2023/04/15 05:40:29;;;;;;;10.60;5.20;;;4.10;75.80;;;;;;4954986;28;20402;-63
2023/04/15 05:42:55;;;;;;;8.98;4.55;;;4.20;75.80;;;;;;4955216;28;20039;-63
2023/04/15 05:45:21;;;;;;;10.07;4.90;;;4.10;75.90;;;;;;4954016;28;20039;-63
2023/04/15 05:47:46;;;;;;;11.25;4.80;;;4.20;76.00;;;;;;4954147;28;20049;-63
2023/04/15 05:50:12;;;;;;;10.90;4.32;;;4.30;76.20;;;;;;4954228;28;20034;-63
2023/04/15 05:52:37;;;;;;;7.72;4.93;;;4.30;76.20;;;;;;4935299;28;20122;-63
2023/04/15 05:55:03;;;;;;;7.78;4.18;;;4.30;76.30;;;;;;4957418;28;20045;-63
2023/04/15 05:57:29;;;;;;;5.32;3.38;;;4.30;76.40;;;;;;4952824;28;20405;-63
2023/04/15 05:59:56;;;;;;;6.43;2.95;;;4.40;76.50;;;;;;4954706;28;20062;-62
2023/04/15 06:02:21;;;;;;;8.07;3.72;;;4.40;76.60;;;;;;4955935;28;20034;-62
2023/04/15 06:04:47;;;;;;;6.53;3.85;;;4.50;76.60;;;;;;4951990;28;20039;-63
2023/04/15 06:07:12;;;;;;;5.47;3.65;;;4.50;76.60;;;;;;4951240;28;20039;-63
2023/04/15 06:09:38;;;;;;;5.90;3.70;;;4.50;76.40;;;;;;4951224;28;20130;-62
2023/04/15 06:12:05;;;;;;;5.28;3.60;;;4.50;76.40;;;;;;4955225;28;20415;-63
2023/04/15 06:14:31;;;;;;;6.75;3.38;;;4.60;76.70;;;;;;4955880;28;20477;-63
2023/04/15 06:16:56;;;;;;;5.78;3.40;;;4.60;76.70;;;;;;4953566;28;20043;-62
2023/04/15 06:19:22;;;;;;;6.68;3.40;;;4.70;76.80;;;;;;4953138;28;20519;-63
2023/04/15 06:21:48;;;;;;;7.63;3.75;;;4.70;76.70;;;;;;4953115;28;20031;-63
2023/04/15 06:24:13;;;;;;;7.15;3.80;;;4.80;76.60;;;;;;4952098;28;20053;-63
2023/04/15 06:26:39;;;;;;;24.95;11.95;;;4.80;76.60;;;;;;4953207;28;20118;-63
2023/04/15 06:29:05;;;;;;;94.68;36.95;;;4.90;76.70;;;;;;4952951;28;20043;-63
2023/04/15 06:31:30;;;;;;;23.42;11.43;;;4.90;76.60;;;;;;4954380;28;20307;-63
2023/04/15 06:33:56;;;;;;;12.95;7.60;;;5.00;76.70;;;;;;4954014;28;20042;-63
2023/04/15 06:36:22;;;;;;;11.32;6.10;;;5.10;76.70;;;;;;4953447;28;20098;-63
2023/04/15 06:38:47;;;;;;;11.18;5.35;;;5.20;76.70;;;;;;4952240;28;20478;-63
2023/04/15 06:41:13;;;;;;;9.98;4.50;;;5.30;76.60;;;;;;4952610;28;20081;-62
2023/04/15 06:43:39;;;;;;;7.30;3.80;;;5.40;76.60;;;;;;4952729;28;20035;-63
2023/04/15 06:46:04;;;;;;;11.85;5.13;;;5.50;76.50;;;;;;4940197;28;20125;-63
2023/04/15 06:48:30;;;;;;;10.60;4.93;;;5.60;76.60;;;;;;4944050;28;20050;-62
2023/04/15 06:50:57;;;;;;;8.45;4.50;;;5.70;76.40;;;;;;4940045;28;20039;-63
2023/04/15 06:53:23;;;;;;;8.40;4.28;;;5.80;76.20;;;;;;4941759;28;20050;-63
2023/04/15 06:55:49;;;;;;;6.53;3.60;;;5.90;76.20;;;;;;4945537;28;20660;-62
2023/04/15 06:58:15;;;;;;;8.02;3.80;;;6.00;76.00;;;;;;4944853;28;20066;-63
2023/04/15 07:00:41;;;;;;;5.65;4.05;;;6.10;75.90;;;;;;4944091;28;20070;-63
2023/04/15 07:03:09;;;;;;;6.18;3.88;;;6.20;75.90;;;;;;4945084;28;20133;-62
2023/04/15 07:05:35;;;;;;;13.00;5.28;;;6.30;75.70;;;;;;4955208;28;20043;-63
2023/04/15 07:08:01;;;;;;;14.52;6.72;;;6.40;76.20;;;;;;4943895;28;20536;-63
2023/04/15 07:10:26;;;;;;;6.95;3.40;;;6.50;75.50;;;;;;4944194;28;20065;-63
2023/04/15 07:12:52;;;;;;;5.63;3.13;;;6.60;75.60;;;;;;4944612;28;20455;-63
2023/04/15 07:15:17;;;;;;;7.60;3.50;;;6.70;75.60;;;;;;4941577;28;20043;-64
2023/04/15 07:17:43;;;;;;;7.57;3.90;;;6.80;75.50;;;;;;4950359;28;20038;-64
2023/04/15 07:20:09;;;;;;;5.78;3.65;;;6.90;75.50;;;;;;4945805;28;20525;-63
2023/04/15 07:22:34;;;;;;;7.22;3.65;;;7.00;75.50;;;;;;4941874;28;20039;-64
2023/04/15 07:25:00;;;;;;;4.38;2.97;;;7.10;75.60;;;;;;4944333;28;20039;-63
2023/04/15 07:27:26;;;;;;;4.38;3.08;;;7.10;75.80;;;;;;4947120;28;20463;-61
2023/04/15 07:29:52;;;;;;;7.60;2.88;;;7.20;76.10;;;;;;4955012;28;20554;-63
2023/04/15 07:32:17;;;;;;;7.10;3.00;;;7.40;76.30;;;;;;4949890;28;20043;-64
2023/04/15 07:34:43;;;;;;;8.27;3.70;;;7.50;76.30;;;;;;4954231;28;20047;-63
2023/04/15 07:37:09;;;;;;;5.13;2.78;;;7.50;76.30;;;;;;4953496;28;20154;-63
2023/04/15 07:39:35;;;;;;;5.03;2.63;;;7.70;76.30;;;;;;4956000;28;20447;-63
2023/04/15 07:42:01;;;;;;;5.25;2.72;;;7.80;76.10;;;;;;4953296;28;20555;-62
2023/04/15 07:44:27;;;;;;;6.68;2.90;;;7.90;75.80;;;;;;4955265;28;20035;-61
2023/04/15 07:46:53;;;;;;;4.10;1.90;;;8.00;75.70;;;;;;4953377;28;20441;-63
2023/04/15 07:49:20;;;;;;;2.53;1.40;;;8.20;75.30;;;;;;4955158;28;20450;-63
2023/04/15 07:51:46;;;;;;;2.80;1.40;;;8.30;74.70;;;;;;4954563;28;20518;-63
2023/04/15 07:54:12;;;;;;;3.35;1.40;;;8.40;74.20;;;;;;4960406;28;20043;-63
2023/04/15 07:56:37;;;;;;;5.15;2.03;;;8.50;73.90;;;;;;4957992;28;20105;-63
2023/04/15 07:59:04;;;;;;;1.88;1.23;;;8.60;73.60;;;;;;4961062;28;20051;-63
2023/04/15 08:01:31;;;;;;;4.00;1.80;;;8.70;73.30;;;;;;4961169;28;21049;-62
2023/04/15 08:03:57;;;;;;;2.35;1.17;;;8.80;73.30;;;;;;4958934;28;20122;-63
2023/04/15 08:06:23;;;;;;;1.92;1.27;;;8.90;73.10;;;;;;4954993;28;20137;-61
2023/04/15 08:08:49;;;;;;;2.67;1.15;;;9.00;72.90;;;;;;4959649;28;20481;-63
2023/04/15 08:11:15;;;;;;;3.75;1.27;;;9.10;72.70;;;;;;4959351;28;20036;-63
2023/04/15 08:13:40;;;;;;;3.25;1.20;;;9.20;72.50;;;;;;4957305;28;20049;-64
2023/04/15 08:16:23;;;;;;;2.95;1.40;;;9.30;72.10;;;;;;4957364;28;20086;-63
2023/04/15 08:18:50;;;;;;;4.22;1.70;;;9.40;71.80;;;;;;4956303;28;20043;-63
2023/04/15 08:21:16;;;;;;;4.35;1.40;;;9.50;71.80;;;;;;4959667;28;20411;-63
2023/04/15 08:23:42;;;;;;;2.78;1.60;;;9.50;71.30;;;;;;4960511;28;20130;-64
2023/04/15 08:26:08;;;;;;;2.13;1.27;;;9.80;71.10;;;;;;4956035;28;20067;-63
2023/04/15 08:28:34;;;;;;;2.25;1.10;;;9.80;70.70;;;;;;4957313;28;20126;-63
2023/04/15 08:31:00;;;;;;;2.65;1.30;;;9.80;70.60;;;;;;4956023;28;20051;-62
2023/04/15 08:33:26;;;;;;;2.13;1.30;;;10.10;70.70;;;;;;4956379;28;21125;-62
2023/04/15 08:35:51;;;;;;;3.25;1.33;;;10.10;70.40;;;;;;4955294;28;20027;-63
2023/04/15 08:38:17;;;;;;;3.10;1.38;;;10.20;70.00;;;;;;4958221;28;20043;-63
2023/04/15 08:40:45;;;;;;;1.98;1.40;;;10.30;70.00;;;;;;4956305;28;20035;-63
2023/04/15 08:43:15;;;;;;;2.28;1.52;;;10.40;69.50;;;;;;4957254;28;20138;-61
2023/04/15 08:45:41;;;;;;;3.13;1.70;;;10.50;68.90;;;;;;4956310;28;20039;-61
2023/04/15 08:48:11;;;;;;;2.92;1.35;;;10.60;68.90;;;;;;4956147;28;20066;-63
2023/04/15 08:50:37;;;;;;;6.78;1.50;;;10.70;68.60;;;;;;4955353;28;20035;-64
2023/04/15 08:53:02;;;;;;;2.53;1.40;;;10.80;68.10;;;;;;4953883;28;20403;-64
2023/04/15 08:55:35;;;;;;;4.80;1.60;;;10.90;67.40;;;;;;4956239;28;20187;-62
2023/04/15 08:58:01;;;;;;;3.50;1.50;;;10.90;66.70;;;;;;4958204;28;20040;-62
2023/04/15 09:00:28;;;;;;;4.15;1.40;;;11.00;66.10;;;;;;4958220;28;20114;-62
2023/04/15 09:02:55;;;;;;;3.17;1.60;;;11.10;66.00;;;;;;4952875;28;22199;-63
2023/04/15 09:05:21;;;;;;;2.95;1.40;;;11.20;66.20;;;;;;4958212;28;20036;-62
2023/04/15 09:07:49;;;;;;;4.00;1.52;;;11.20;65.50;;;;;;4959169;28;20039;-62
2023/04/15 09:10:14;;;;;;;3.25;1.40;;;11.30;65.60;;;;;;4958084;28;20087;-61
2023/04/15 09:12:40;;;;;;;5.07;1.52;;;11.40;65.50;;;;;;4960594;28;20043;-63
2023/04/15 09:15:09;;;;;;;3.13;1.35;;;11.50;65.30;;;;;;4958270;28;20078;-61
2023/04/15 09:17:44;;;;;;;4.45;1.90;;;11.60;65.50;;;;;;4958531;28;20035;-63
2023/04/15 09:20:12;;;;;;;;;;;11.70;65.90;;;;;;4956815;28;20039;-63
2023/04/15 09:22:38;;;;;;;4.00;1.50;;;11.90;65.50;;;;;;4957217;28;19926;-64
2023/04/15 09:25:26;;;;;;;4.40;1.83;;;12.00;65.70;;;;;;4958825;28;20047;-63
2023/04/15 09:27:53;;;;;;;4.00;1.80;;;12.10;64.10;;;;;;4958669;28;20110;-63
2023/04/15 09:30:18;;;;;;;4.20;1.70;;;12.20;64.00;;;;;;4960172;28;20035;-63
2023/04/15 09:32:51;;;;;;;4.43;1.48;;;12.30;63.60;;;;;;4958101;28;20038;-64
2023/04/15 09:35:17;;;;;;;5.72;1.45;;;12.40;63.00;;;;;;4958981;28;20241;-63
2023/04/15 09:37:43;;;;;;;6.28;1.67;;;12.50;62.50;;;;;;4959908;28;20027;-63
2023/04/15 09:40:09;;;;;;;3.90;1.60;;;12.60;62.00;;;;;;4959517;28;20035;-63
2023/04/15 09:42:36;;;;;;;4.88;1.38;;;12.70;61.30;;;;;;4959391;28;20434;-64
2023/04/15 09:45:11;;;;;;;4.30;1.10;;;12.80;60.40;;;;;;4960011;28;20035;-63
2023/04/15 09:47:37;;;;;;;3.75;1.20;;;12.80;58.90;;;;;;4960125;28;20034;-63
2023/04/15 09:50:03;;;;;;;4.53;1.23;;;12.90;58.80;;;;;;4960795;28;20281;-63
2023/04/15 09:52:29;;;;;;;3.95;1.40;;;13.00;58.60;;;;;;4958150;28;20035;-62
2023/04/15 09:54:57;;;;;;;3.92;1.55;;;13.10;58.90;;;;;;4955327;28;20035;-63
2023/04/15 09:57:23;;;;;;;4.70;1.50;;;13.20;58.30;;;;;;4955201;28;20038;-63
2023/04/15 09:59:52;;;;;;;6.65;1.48;;;13.20;58.90;;;;;;4956515;28;20027;-64
2023/04/15 10:02:22;;;;;;;3.25;1.58;;;13.30;58.60;;;;;;4955580;28;20058;-62
2023/04/15 10:04:48;;;;;;;3.63;1.70;;;13.30;59.00;;;;;;4954769;28;20530;-63
2023/04/15 10:07:14;;;;;;;2.95;1.23;;;13.40;58.90;;;;;;4958609;28;20138;-63
2023/04/15 10:09:40;;;;;;;4.07;1.52;;;13.50;58.50;;;;;;4961245;28;20062;-63
2023/04/15 10:12:06;;;;;;;2.45;1.15;;;13.60;57.90;;;;;;4957208;28;20043;-61
2023/04/15 10:14:33;;;;;;;1.90;1.23;;;13.70;57.00;;;;;;4958503;28;20050;-61
2023/04/15 10:17:03;;;;;;;2.83;1.10;;;13.80;57.30;;;;;;4960418;28;20062;-63
2023/04/15 10:19:32;;;;;;;2.40;1.13;;;13.80;57.30;;;;;;4960611;28;20091;-63
2023/04/15 10:21:58;;;;;;;4.05;1.52;;;13.90;57.20;;;;;;4960864;28;20426;-62
2023/04/15 10:24:25;;;;;;;4.45;1.30;;;14.00;57.20;;;;;;4960143;28;20049;-63
2023/04/15 10:26:51;;;;;;;3.58;1.23;;;14.10;56.40;;;;;;4959865;28;20047;-63
2023/04/15 10:29:17;;;;;;;4.25;1.30;;;14.10;56.30;;;;;;4960238;28;20589;-63
2023/04/15 10:31:43;;;;;;;2.58;1.20;;;14.20;56.50;;;;;;4959372;28;20045;-63
2023/04/15 10:34:09;;;;;;;2.78;1.50;;;14.20;56.40;;;;;;4960293;28;20038;-63
2023/04/15 10:36:36;;;;;;;3.38;1.10;;;14.20;56.10;;;;;;4959365;28;20467;-63
2023/04/15 10:39:01;;;;;;;4.68;1.33;;;14.20;56.10;;;;;;4959464;28;20039;-62
2023/04/15 10:41:33;;;;;;;3.42;1.40;;;14.30;55.70;;;;;;4959635;28;20114;-63
2023/04/15 10:43:59;;;;;;;4.75;1.38;;;14.30;54.80;;;;;;4960065;28;20031;-63
2023/04/15 10:46:43;;;;;;;3.90;1.00;;;14.30;55.80;;;;;;4959597;28;20517;-63
2023/04/15 10:49:23;;;;;;;3.70;1.10;;;14.40;54.70;;;;;;4958823;28;20495;-62
2023/04/15 10:51:52;;;;;;;3.83;1.30;;;14.40;55.10;;;;;;4960418;28;20038;-63
2023/04/15 10:54:23;;;;;;;3.15;1.17;;;14.50;55.10;;;;;;4960693;28;20034;-62
2023/04/15 10:57:20;;;;;;;3.53;1.58;;;14.60;55.40;;;;;;4958836;28;20160;-62
2023/04/15 11:00:05;;;;;;;2.85;1.30;;;14.70;54.00;;;;;;4957963;28;20064;-63
2023/04/15 11:02:43;;;;;;;4.50;1.50;;;14.70;52.70;;;;;;4960046;28;20124;-63
2023/04/15 11:05:16;;;;;;;3.75;1.10;;;14.70;53.40;;;;;;4956605;28;20500;-61
2023/04/15 11:07:48;;;;;;;2.00;1.25;;;14.70;53.20;;;;;;4957610;28;20051;-64
2023/04/15 11:10:16;;;;;;;2.15;1.10;;;14.80;53.30;;;;;;4956682;28;20082;-62
2023/04/15 11:12:42;;;;;;;4.03;1.30;;;14.80;52.80;;;;;;4958343;28;20630;-62
2023/04/15 11:15:30;;;;;;;1.95;1.17;;;14.80;53.30;;;;;;4958089;28;20027;-63
2023/04/15 11:18:10;;;;;;;3.47;1.15;;;14.90;53.00;;;;;;4959383;28;20034;-63
2023/04/15 11:20:37;;;;;;;2.13;1.30;;;14.90;53.30;;;;;;4936973;28;20118;-63
2023/04/15 11:23:03;;;;;;;3.80;1.42;;;15.00;54.10;;;;;;4958238;28;20098;-63
2023/04/15 11:25:31;;;;;;;4.68;1.38;;;15.00;53.90;;;;;;4958539;28;21600;-63
2023/04/15 11:27:58;;;;;;;2.50;1.30;;;15.10;52.40;;;;;;4957436;28;20426;-62
2023/04/15 11:30:25;;;;;;;5.03;1.45;;;15.10;52.60;;;;;;4956647;28;20035;-63
2023/04/15 11:32:57;;;;;;;4.38;1.38;;;15.20;52.80;;;;;;4958290;28;20384;-63
2023/04/15 11:35:23;;;;;;;3.60;1.40;;;15.20;52.40;;;;;;4959949;28;20043;-63
2023/04/15 11:37:49;;;;;;;3.53;1.15;;;15.20;51.30;;;;;;4956797;28;20034;-64
2023/04/15 11:40:16;;;;;;;3.25;1.40;;;15.30;51.10;;;;;;4959657;28;20086;-62
2023/04/15 11:42:43;;;;;;;3.38;1.50;;;15.20;51.10;;;;;;4956161;28;20047;-62
2023/04/15 11:45:14;;;;;;;2.17;1.25;;;15.20;51.30;;;;;;4955315;28;20070;-62
2023/04/15 11:47:41;;;;;;;1.73;1.05;;;15.30;50.50;;;;;;4958835;28;20036;-62
2023/04/15 11:50:17;;;;;;;2.67;1.10;;;15.30;50.70;;;;;;4957271;28;20586;-62
2023/04/15 11:52:59;;;;;;;2.90;1.00;;;15.30;50.80;;;;;;4958200;28;20121;-62
2023/04/15 11:55:25;;;;;;;4.78;1.13;;;15.30;50.00;;;;;;4957283;28;20039;-63
2023/04/15 11:58:16;;;;;;;2.78;1.10;;;15.20;50.70;;;;;;4958523;28;20039;-63
2023/04/15 12:00:53;;;;;;;1.98;0.90;;;15.20;49.50;;;;;;4955753;28;20090;-62
2023/04/15 12:03:23;;;;;;;3.00;1.10;;;15.20;49.00;;;;;;4956554;28;20101;-63
2023/04/15 12:06:07;;;;;;;2.83;1.08;;;15.10;48.80;;;;;;4956056;28;20418;-62
2023/04/15 12:08:53;;;;;;;3.08;0.95;;;15.10;48.50;;;;;;4956018;28;20039;-63
2023/04/15 12:11:31;;;;;;;1.80;1.00;;;15.10;49.30;;;;;;4959649;28;20108;-63
2023/04/15 12:14:02;;;;;;;1.80;0.90;;;15.00;50.50;;;;;;4957386;28;20426;-63
2023/04/15 12:16:28;;;;;;;2.20;1.00;;;15.00;50.40;;;;;;4956566;28;20035;-63
2023/04/15 12:18:57;;;;;;;3.80;1.05;;;15.00;49.40;;;;;;4956113;28;20067;-63
2023/04/15 12:21:24;;;;;;;2.83;1.10;;;15.00;48.70;;;;;;4958743;28;20050;-63
2023/04/15 12:23:54;;;;;;;2.20;1.13;;;15.00;48.40;;;;;;4954994;28;20027;-63
2023/04/15 12:26:27;;;;;;;4.07;1.10;;;15.00;48.00;;;;;;4958358;28;20038;-62
2023/04/15 12:29:04;;;;;;;1.98;0.98;;;15.00;46.50;;;;;;4954274;28;20042;-62
2023/04/15 12:31:30;;;;;;;2.88;1.10;;;14.90;46.80;;;;;;4942437;28;20035;-62
2023/04/15 12:33:57;;;;;;;1.30;0.80;;;14.90;48.00;;;;;;4954974;28;20040;-63
2023/04/15 12:36:23;;;;;;;4.45;1.02;;;14.90;48.20;;;;;;4955840;28;20077;-63
2023/04/15 12:38:49;;;;;;;2.85;1.20;;;14.90;48.60;;;;;;4951356;28;20186;-61
2023/04/15 12:41:15;;;;;;;1.85;0.90;;;14.90;48.30;;;;;;4962082;28;20130;-63
2023/04/15 12:43:42;;;;;;;1.48;1.00;;;14.90;49.00;;;;;;4962675;28;20106;-63
2023/04/15 12:46:09;;;;;;;1.65;1.10;;;15.00;49.10;;;;;;4959916;28;20043;-63
2023/04/15 12:48:34;;;;;;;2.38;1.00;;;15.00;48.10;;;;;;4959671;28;20149;-61
2023/04/15 12:51:00;;;;;;;1.70;0.70;;;15.10;48.70;;;;;;4961693;28;20462;-61
2023/04/15 12:53:27;;;;;;;1.55;1.00;;;15.10;47.60;;;;;;4961873;28;20558;-62